createdAt,value
2022-09-10T00:01:32.753Z,52.97
2022-09-10T00:04:02.692Z,53.02
2022-09-10T00:06:35.426Z,53.69
2022-09-10T00:09:03.899Z,52.93
2022-09-10T00:11:32.752Z,53.23
2022-09-10T00:14:02.580Z,53.44
2022-09-10T00:16:32.337Z,53.82
2022-09-10T00:19:02.345Z,53.46
2022-09-10T00:21:32.228Z,54.20
2022-09-10T00:24:02.200Z,54.21
2022-09-10T00:26:34.667Z,54.26
2022-09-10T00:29:03.151Z,53.29
2022-09-10T00:31:32.984Z,53.38
2022-09-10T00:34:03.563Z,54.22
2022-09-10T00:36:36.918Z,53.31
2022-09-10T00:39:08.092Z,53.75
2022-09-10T00:41:37.714Z,54.37
2022-09-10T00:44:08.404Z,53.55
2022-09-10T00:46:43.912Z,53.48
2022-09-10T00:49:17.855Z,54.29
2022-09-10T00:51:49.375Z,53.82
2022-09-10T00:54:21.483Z,53.68
2022-09-10T00:56:51.117Z,54.41
2022-09-10T00:59:22.580Z,54.23
2022-09-10T01:01:51.394Z,54.45
2022-09-10T01:04:20.237Z,53.86
2022-09-10T01:06:52.499Z,53.99
2022-09-10T01:09:22.921Z,54.78
2022-09-10T01:12:07.054Z,54.48
2022-09-10T01:15:07.630Z,54.63
2022-09-10T01:17:46.933Z,54.70
2022-09-10T01:20:51.270Z,54.28
2022-09-10T01:23:49.711Z,55.09
2022-09-10T01:26:32.685Z,54.49
2022-09-10T01:29:10.115Z,55.30
2022-09-10T01:31:50.474Z,55.02
2022-09-10T01:34:25.952Z,54.63
2022-09-10T01:37:00.051Z,54.89
2022-09-10T01:39:29.390Z,54.97
2022-09-10T01:42:00.473Z,54.80
2022-09-10T01:44:47.778Z,55.12
2022-09-10T01:47:37.232Z,55.17
2022-09-10T01:50:18.645Z,55.13
2022-09-10T01:53:00.214Z,55.15
2022-09-10T01:55:38.506Z,55.47
2022-09-10T01:58:19.898Z,55.56
2022-09-10T02:01:05.000Z,55.31
2022-09-10T02:03:37.699Z,55.23
2022-09-10T02:06:09.583Z,55.15
2022-09-10T02:08:41.893Z,55.46
2022-09-10T02:11:14.470Z,55.27
2022-09-10T02:13:48.179Z,55.23
2022-09-10T02:16:31.124Z,55.71
2022-09-10T02:19:01.768Z,55.67
2022-09-10T02:21:33.043Z,55.24
2022-09-10T02:24:06.953Z,55.30
2022-09-10T02:26:38.245Z,55.72
2022-09-10T02:29:09.160Z,55.61
2022-09-10T02:31:41.413Z,55.47
2022-09-10T02:34:10.503Z,55.78
2022-09-10T02:36:40.510Z,55.63
2022-09-10T02:39:08.912Z,55.75
2022-09-10T02:41:41.001Z,55.71
2022-09-10T02:44:09.945Z,56.14
2022-09-10T02:46:40.311Z,56.44
2022-09-10T02:49:10.072Z,55.92
2022-09-10T02:51:41.941Z,55.88
2022-09-10T02:54:10.554Z,56.28
2022-09-10T02:56:39.068Z,56.18
2022-09-10T02:59:07.580Z,56.48
2022-09-10T03:01:36.920Z,55.92
2022-09-10T03:04:08.223Z,56.50
2022-09-10T03:06:38.279Z,56.53
2022-09-10T03:09:06.687Z,56.37
2022-09-10T03:11:38.049Z,56.69
2022-09-10T03:14:06.452Z,56.62
2022-09-10T03:16:34.964Z,56.49
2022-09-10T03:19:08.177Z,56.51
2022-09-10T03:21:36.606Z,57.18
2022-09-10T03:24:05.366Z,56.64
2022-09-10T03:26:34.414Z,56.51
2022-09-10T03:29:03.370Z,57.23
2022-09-10T03:31:36.984Z,57.24
2022-09-10T03:34:06.346Z,57.53
2022-09-10T03:36:36.159Z,56.89
2022-09-10T03:39:07.385Z,56.69
2022-09-10T03:41:35.966Z,56.68
2022-09-10T03:44:05.319Z,57.48
2022-09-10T03:46:34.209Z,57.29
2022-09-10T03:49:05.063Z,56.96
2022-09-10T03:51:36.457Z,56.98
2022-09-10T03:54:06.425Z,57.63
2022-09-10T03:56:35.399Z,57.67
2022-09-10T03:59:03.872Z,58.03
2022-09-10T04:01:32.755Z,57.42
2022-09-10T04:04:01.424Z,57.51
2022-09-10T04:06:33.069Z,57.83
2022-09-10T04:09:03.355Z,58.22
2022-09-10T04:11:32.030Z,58.06
2022-09-10T04:14:01.100Z,58.46
2022-09-10T04:16:32.234Z,58.57
2022-09-10T04:19:00.779Z,58.95
2022-09-10T04:21:31.662Z,59.41
2022-09-10T04:24:00.876Z,59.49
2022-09-10T04:26:31.859Z,59.24
2022-09-10T04:29:00.335Z,59.61
2022-09-10T04:31:28.722Z,59.94
2022-09-10T04:34:02.570Z,60.14
2022-09-10T04:36:33.906Z,60.08
2022-09-10T04:39:03.915Z,59.81
2022-09-10T04:41:34.771Z,59.97
2022-09-10T04:44:03.749Z,59.01
2022-09-10T04:46:32.244Z,60.00
2022-09-10T04:49:02.761Z,59.56
2022-09-10T04:51:31.275Z,59.72
2022-09-10T04:54:00.330Z,58.95
2022-09-10T04:56:35.057Z,59.46
2022-09-10T04:59:03.597Z,59.54
2022-09-10T05:01:36.122Z,59.27
2022-09-10T05:04:05.011Z,59.26
2022-09-10T05:06:36.245Z,58.43
2022-09-10T05:09:06.834Z,57.73
2022-09-10T05:11:37.402Z,57.01
2022-09-10T05:14:07.524Z,57.46
2022-09-10T05:16:36.686Z,57.02
2022-09-10T05:19:05.253Z,55.84
2022-09-10T05:21:38.737Z,54.55
2022-09-10T05:24:07.834Z,55.10
2022-09-10T05:26:37.613Z,55.25
2022-09-10T05:29:09.592Z,54.19
2022-09-10T05:31:38.878Z,53.82
2022-09-10T05:34:08.577Z,53.78
2022-09-10T05:36:38.342Z,54.13
2022-09-10T05:39:06.830Z,53.84
2022-09-10T05:41:39.258Z,53.56
2022-09-10T05:44:09.107Z,53.34
2022-09-10T05:46:38.072Z,52.30
2022-09-10T05:49:13.188Z,52.22
2022-09-10T05:51:42.554Z,51.84
2022-09-10T05:54:11.687Z,51.50
2022-09-10T05:56:43.576Z,50.78
2022-09-10T05:59:11.962Z,50.94
2022-09-10T06:01:44.726Z,50.77
2022-09-10T06:04:13.772Z,50.63
2022-09-10T06:06:42.270Z,50.57
2022-09-10T06:09:13.888Z,50.39
2022-09-10T06:11:52.061Z,49.65
2022-09-10T06:14:21.602Z,50.49
2022-09-10T06:16:52.077Z,50.13
2022-09-10T06:19:21.107Z,49.03
2022-09-10T06:21:52.508Z,49.31
2022-09-10T06:24:22.670Z,48.37
2022-09-10T06:26:55.258Z,48.17
2022-09-10T06:29:25.528Z,47.86
2022-09-10T06:31:54.198Z,48.20
2022-09-10T06:34:22.694Z,48.25
2022-09-10T06:36:51.699Z,47.28
2022-09-10T06:39:20.530Z,47.12
2022-09-10T06:41:53.368Z,47.79
2022-09-10T06:44:41.647Z,47.18
2022-09-10T06:50:10.515Z,46.72
2022-09-10T06:52:41.219Z,46.17
2022-09-10T06:55:12.170Z,45.92
2022-09-10T06:57:44.563Z,45.33
2022-09-10T07:00:17.602Z,45.22
2022-09-10T07:02:50.806Z,45.42
2022-09-10T07:05:19.830Z,44.73
2022-09-10T07:07:48.307Z,44.17
2022-09-10T07:10:17.922Z,44.54
2022-09-10T07:12:46.594Z,44.19
2022-09-10T07:15:16.583Z,43.58
2022-09-10T07:17:46.152Z,43.72
2022-09-10T07:20:15.027Z,41.96
2022-09-10T07:22:48.136Z,41.09
2022-09-10T07:25:20.662Z,41.99
2022-09-10T07:28:02.225Z,41.38
2022-09-10T07:30:36.031Z,40.28
2022-09-10T07:33:05.024Z,39.89
2022-09-10T07:35:37.405Z,39.35
2022-09-10T07:38:07.067Z,38.84
2022-09-10T07:40:40.291Z,38.01
2022-09-10T07:43:08.690Z,37.83
2022-09-10T07:45:38.681Z,37.08
2022-09-10T07:48:07.334Z,36.71
2022-09-10T07:50:39.946Z,34.93
2022-09-10T07:53:08.668Z,33.34
2022-09-10T07:55:37.637Z,32.56
2022-09-10T07:58:07.055Z,32.67
2022-09-10T08:00:38.158Z,31.15
2022-09-10T08:03:12.558Z,29.73
2022-09-10T08:05:41.840Z,29.81
2022-09-10T08:08:10.644Z,27.49
2022-09-10T08:10:39.455Z,26.80
2022-09-10T08:13:10.172Z,25.97
2022-09-10T08:15:45.084Z,24.75
2022-09-10T08:18:14.844Z,24.86
2022-09-10T08:20:43.621Z,23.96
2022-09-10T08:23:12.104Z,23.99
2022-09-10T08:25:40.651Z,23.76
2022-09-10T08:28:09.743Z,24.15
2022-09-10T08:30:38.352Z,23.63
2022-09-10T08:33:08.189Z,23.83
2022-09-10T08:35:37.987Z,22.93
2022-09-10T08:38:06.391Z,22.39
2022-09-10T08:40:34.825Z,21.84
2022-09-10T08:43:03.802Z,21.75
2022-09-10T08:45:35.233Z,22.23
2022-09-10T08:48:15.870Z,22.78
2022-09-10T08:50:50.587Z,22.45
2022-09-10T08:53:27.371Z,22.76
2022-09-10T08:56:03.321Z,22.51
2022-09-10T08:58:43.571Z,21.69
2022-09-10T09:01:17.181Z,22.63
2022-09-10T09:03:48.725Z,22.62
2022-09-10T09:06:29.155Z,22.04
2022-09-10T09:09:01.325Z,22.27
2022-09-10T09:11:46.329Z,21.67
2022-09-10T09:14:26.615Z,22.28
2022-09-10T09:17:10.053Z,22.46
2022-09-10T09:19:46.956Z,22.90
2022-09-10T09:22:21.257Z,23.07
2022-09-10T09:24:57.549Z,23.37
2022-09-10T09:27:30.009Z,23.61
2022-09-10T09:30:03.178Z,22.64
2022-09-10T09:32:37.129Z,24.03
2022-09-10T09:35:19.012Z,24.49
2022-09-10T09:37:48.782Z,25.31
2022-09-10T09:40:30.327Z,25.21
2022-09-10T09:43:06.336Z,25.89
2022-09-10T09:45:38.515Z,26.09
2022-09-10T09:48:08.729Z,26.33
2022-09-10T09:50:41.943Z,26.42
2022-09-10T09:53:16.410Z,26.54
2022-09-10T09:55:48.218Z,26.93
2022-09-10T09:58:32.248Z,26.65
2022-09-10T10:01:15.023Z,27.25
2022-09-10T10:03:51.788Z,27.31
2022-09-10T10:06:24.752Z,27.47
2022-09-10T10:09:05.898Z,27.29
2022-09-10T10:11:53.796Z,27.04
2022-09-10T10:14:35.171Z,27.98
2022-09-10T10:17:04.207Z,27.97
2022-09-10T10:19:35.138Z,27.89
2022-09-10T10:22:22.811Z,27.50
2022-09-10T10:24:54.101Z,26.57
2022-09-10T10:27:32.941Z,25.76
2022-09-10T10:30:06.240Z,25.14
2022-09-10T10:32:48.935Z,23.83
2022-09-10T10:35:32.853Z,22.78
2022-09-10T10:38:29.300Z,20.31
2022-09-10T10:41:33.498Z,19.44
2022-09-10T10:44:17.631Z,18.54
2022-09-10T10:46:54.764Z,18.93
2022-09-10T10:49:33.013Z,16.38
2022-09-10T10:52:09.958Z,16.21
2022-09-10T10:55:03.750Z,15.37
2022-09-10T10:57:52.851Z,16.66
2022-09-10T11:00:22.294Z,17.62
2022-09-10T11:02:54.817Z,16.92
2022-09-10T11:05:31.949Z,16.42
2022-09-10T11:08:05.216Z,15.66
2022-09-10T11:10:40.270Z,13.75
2022-09-10T11:13:14.358Z,15.46
2022-09-10T11:15:47.565Z,14.93
2022-09-10T11:18:21.231Z,15.41
2022-09-10T11:20:58.344Z,13.99
2022-09-10T11:23:33.680Z,14.13
2022-09-10T11:26:10.865Z,13.35
2022-09-10T11:28:44.888Z,13.70
2022-09-10T11:31:30.536Z,12.54
2022-09-10T11:34:03.642Z,12.85
2022-09-10T11:36:40.077Z,13.52
2022-09-10T11:39:17.702Z,12.45
2022-09-10T11:41:53.013Z,11.92
2022-09-10T11:44:40.644Z,11.22
2022-09-10T11:47:17.160Z,12.03
2022-09-10T11:49:55.476Z,10.87
2022-09-10T11:52:25.948Z,11.81
2022-09-10T11:54:55.657Z,11.79
2022-09-10T11:57:35.300Z,11.67
2022-09-10T12:00:15.859Z,12.43
2022-09-10T12:03:31.334Z,12.44
2022-09-10T12:06:08.263Z,13.61
2022-09-10T12:08:57.094Z,13.10
2022-09-10T12:11:35.241Z,14.63
2022-09-10T12:14:09.369Z,15.29
2022-09-10T12:16:44.164Z,15.66
2022-09-10T12:19:25.600Z,15.83
2022-09-10T12:21:58.534Z,16.80
2022-09-10T12:24:40.393Z,17.01
2022-09-10T12:27:10.238Z,17.32
2022-09-10T12:29:41.490Z,17.52
2022-09-10T12:32:31.425Z,17.66
2022-09-10T12:35:46.280Z,18.44
2022-09-10T12:38:55.483Z,18.78
2022-09-10T12:42:02.158Z,19.52
2022-09-10T12:44:56.354Z,19.61
2022-09-10T12:47:50.773Z,19.63
2022-09-10T12:50:36.400Z,20.44
2022-09-10T12:53:38.771Z,20.79
2022-09-10T12:56:33.751Z,20.76
2022-09-10T12:59:20.092Z,21.02
2022-09-10T13:01:54.611Z,21.26
2022-09-10T13:04:28.695Z,21.43
2022-09-10T13:07:00.556Z,21.50
2022-09-10T13:09:33.676Z,22.08
2022-09-10T13:12:08.312Z,21.70
2022-09-10T13:14:41.326Z,22.28
2022-09-10T13:17:38.045Z,22.28
2022-09-10T13:20:33.867Z,22.54
2022-09-10T13:23:06.114Z,22.59
2022-09-10T13:25:41.597Z,22.59
2022-09-10T13:28:47.655Z,22.65
2022-09-10T13:31:22.696Z,23.24
2022-09-10T13:34:18.071Z,23.50
2022-09-10T13:36:58.975Z,23.73
2022-09-10T13:39:47.473Z,23.70
2022-09-10T13:42:35.883Z,23.76
2022-09-10T13:45:23.725Z,24.07
2022-09-10T13:47:58.584Z,24.60
2022-09-10T13:50:33.977Z,24.44
2022-09-10T13:53:08.322Z,24.66
2022-09-10T13:55:37.734Z,24.64
2022-09-10T13:58:14.664Z,24.61
2022-09-10T14:00:56.092Z,24.56
2022-09-10T14:03:26.810Z,24.27
2022-09-10T14:05:59.256Z,24.33
2022-09-10T14:08:30.821Z,24.72
2022-09-10T14:11:02.243Z,24.60
2022-09-10T14:13:37.029Z,25.37
2022-09-10T14:16:08.764Z,25.49
2022-09-10T14:18:44.151Z,25.91
2022-09-10T14:21:16.330Z,25.13
2022-09-10T14:23:46.333Z,25.46
2022-09-10T14:26:24.312Z,25.51
2022-09-10T14:28:58.997Z,25.71
2022-09-10T14:31:36.967Z,26.05
2022-09-10T14:34:32.800Z,25.86
2022-09-10T14:37:24.236Z,26.10
2022-09-10T14:39:52.899Z,26.51
2022-09-10T14:42:27.354Z,26.08
2022-09-10T14:44:56.201Z,25.89
2022-09-10T14:47:30.339Z,25.90
2022-09-10T14:50:28.524Z,25.99
2022-09-10T14:52:58.517Z,26.10
2022-09-10T14:55:30.748Z,26.93
2022-09-10T14:58:00.219Z,27.34
2022-09-10T15:00:29.229Z,27.78
2022-09-10T15:02:58.635Z,27.84
2022-09-10T15:05:27.349Z,28.04
2022-09-10T15:07:57.112Z,28.32
2022-09-10T15:10:25.643Z,28.14
2022-09-10T15:12:55.700Z,27.90
2022-09-10T15:15:25.092Z,28.07
2022-09-10T15:17:53.817Z,28.30
2022-09-10T15:20:27.147Z,28.30
2022-09-10T15:22:57.708Z,28.59
2022-09-10T15:25:37.998Z,28.48
2022-09-10T15:28:07.695Z,28.63
2022-09-10T15:30:37.068Z,28.53
2022-09-10T15:33:05.578Z,28.67
2022-09-10T15:35:34.184Z,28.70
2022-09-10T15:38:03.953Z,28.58
2022-09-10T15:40:32.512Z,28.66
2022-09-10T15:43:00.884Z,28.93
2022-09-10T15:45:29.632Z,29.14
2022-09-10T15:47:59.249Z,29.16
2022-09-10T15:50:27.814Z,29.30
2022-09-10T15:52:56.404Z,29.48
2022-09-10T15:55:27.654Z,29.27
2022-09-10T15:57:56.170Z,29.46
2022-09-10T16:00:24.711Z,29.31
2022-09-10T16:02:54.087Z,29.88
2022-09-10T16:05:22.796Z,29.60
2022-09-10T16:07:51.287Z,29.80
2022-09-10T16:10:19.741Z,29.82
2022-09-10T16:12:49.787Z,29.67
2022-09-10T16:15:18.219Z,29.38
2022-09-10T16:17:46.684Z,29.92
2022-09-10T16:20:15.191Z,29.81
2022-09-10T16:22:43.604Z,29.80
2022-09-10T16:25:12.225Z,31.16
2022-09-10T16:27:43.346Z,31.43
2022-09-10T16:30:14.505Z,30.63
2022-09-10T16:32:42.990Z,30.56
2022-09-10T16:35:12.074Z,30.21
2022-09-10T16:37:40.857Z,30.44
2022-09-10T16:40:11.295Z,30.83
2022-09-10T16:42:39.759Z,30.57
2022-09-10T16:45:09.539Z,30.48
2022-09-10T16:47:39.429Z,31.08
2022-09-10T16:50:08.743Z,31.17
2022-09-10T16:52:37.733Z,31.11
2022-09-10T16:55:07.130Z,31.22
2022-09-10T16:57:35.578Z,31.56
2022-09-10T17:00:07.057Z,31.52
2022-09-10T17:02:35.803Z,31.41
2022-09-10T17:05:06.382Z,31.46
2022-09-10T17:07:34.850Z,31.22
2022-09-10T17:10:03.253Z,31.12
2022-09-10T17:12:32.060Z,31.64
2022-09-10T17:15:00.531Z,31.78
2022-09-10T17:17:29.000Z,31.79
2022-09-10T17:19:59.510Z,31.64
2022-09-10T17:22:29.857Z,31.55
2022-09-10T17:24:58.430Z,32.21
2022-09-10T17:27:27.903Z,32.02
2022-09-10T17:29:56.426Z,32.05
2022-09-10T17:32:25.406Z,32.07
2022-09-10T17:34:54.665Z,32.02
2022-09-10T17:37:24.543Z,32.55
2022-09-10T17:39:55.331Z,32.30
2022-09-10T17:42:24.031Z,32.30
2022-09-10T17:44:52.473Z,32.68
2022-09-10T17:47:20.948Z,32.89
2022-09-10T17:49:49.604Z,33.04
2022-09-10T17:52:18.874Z,33.27
2022-09-10T17:54:47.264Z,33.46
2022-09-10T17:57:17.526Z,33.26
2022-09-10T17:59:46.046Z,33.79
2022-09-10T18:02:16.316Z,33.64
2022-09-10T18:04:45.051Z,33.93
2022-09-10T18:07:13.523Z,34.23
2022-09-10T18:09:41.990Z,34.20
2022-09-10T18:12:10.638Z,34.36
2022-09-10T18:14:40.486Z,34.23
2022-09-10T18:17:08.912Z,34.64
2022-09-10T18:19:37.265Z,34.59
2022-09-10T18:22:06.447Z,34.71
2022-09-10T18:24:34.920Z,35.04
2022-09-10T18:27:04.852Z,35.02
2022-09-10T18:29:33.427Z,35.01
2022-09-10T18:32:04.669Z,35.11
2022-09-10T18:34:33.182Z,35.18
2022-09-10T18:37:02.942Z,35.23
2022-09-10T18:39:33.402Z,35.55
2022-09-10T18:42:02.904Z,35.93
2022-09-10T18:44:33.466Z,36.08
2022-09-10T18:47:02.547Z,35.99
2022-09-10T18:49:33.651Z,36.38
2022-09-10T18:52:02.124Z,36.24
2022-09-10T18:54:30.788Z,36.20
2022-09-10T18:56:59.354Z,36.37
2022-09-10T18:59:28.150Z,37.08
2022-09-10T19:01:57.055Z,37.13
2022-09-10T19:04:27.461Z,36.88
2022-09-10T19:06:58.357Z,37.65
2022-09-10T19:09:28.438Z,37.30
2022-09-10T19:11:58.771Z,37.06
2022-09-10T19:14:29.511Z,37.31
2022-09-10T19:16:59.326Z,37.21
2022-09-10T19:19:30.082Z,37.80
2022-09-10T19:22:03.773Z,37.47
2022-09-10T19:24:53.640Z,37.46
2022-09-10T19:27:21.532Z,38.19
2022-09-10T19:29:50.466Z,38.58
2022-09-10T19:32:20.051Z,37.89
2022-09-10T19:34:50.995Z,37.79
2022-09-10T19:37:21.166Z,38.03
2022-09-10T19:39:49.718Z,38.14
2022-09-10T19:42:18.402Z,38.61
2022-09-10T19:44:46.865Z,38.70
2022-09-10T19:47:15.334Z,38.41
2022-09-10T19:49:43.716Z,38.38
2022-09-10T19:52:12.177Z,38.50
2022-09-10T19:54:41.936Z,39.06
2022-09-10T19:57:10.395Z,39.01
2022-09-10T19:59:39.060Z,39.13
2022-09-10T20:02:07.888Z,39.10
2022-09-10T20:04:36.964Z,39.19
2022-09-10T20:07:06.646Z,39.95
2022-09-10T20:09:39.660Z,39.99
2022-09-10T20:12:10.893Z,40.02
2022-09-10T20:14:39.535Z,40.03
2022-09-10T20:17:08.095Z,40.40
2022-09-10T20:19:37.081Z,40.75
2022-09-10T20:22:05.698Z,40.43
2022-09-10T20:24:34.386Z,40.58
2022-09-10T20:27:02.892Z,40.77
2022-09-10T20:29:33.248Z,40.75
2022-09-10T20:32:01.727Z,40.98
2022-09-10T20:34:31.401Z,41.31
2022-09-10T20:36:59.999Z,41.53
2022-09-10T20:39:28.484Z,41.39
2022-09-10T20:41:57.896Z,41.80
2022-09-10T20:44:26.275Z,41.92
2022-09-10T20:46:56.506Z,41.68
2022-09-10T20:49:24.918Z,42.36
2022-09-10T20:51:53.709Z,42.11
2022-09-10T20:54:22.100Z,42.26
2022-09-10T20:56:50.526Z,42.44
2022-09-10T20:59:19.584Z,42.30
2022-09-10T21:01:50.883Z,42.63
2022-09-10T21:04:22.083Z,42.60
2022-09-10T21:06:50.449Z,42.60
2022-09-10T21:09:19.206Z,43.39
2022-09-10T21:11:47.614Z,43.22
2022-09-10T21:14:17.296Z,43.17
2022-09-10T21:16:47.525Z,43.48
